WTB9CK EGPA-EKVG
Flight info
| Callsign | WTB9CK |
|---|---|
| Flight time | 0h 59m |
| Altitude | 24000 |
| Route | KOKAL DCT VAMLA/M051F240 DCT H6106 DCT ROBUR |
| Aircraft | B350/L-SBGRW/S |
Departure
| Time | 2026-04-21 17:31 |
|---|---|
| Airport | Kirkwall Airport (EGPA) |
Arrival
| Time | 2026-04-21 18:31 |
|---|---|
| Airport | Vágar Airport (EKVG) |
| Time | Latitude | Longitude | Altitude | Speed | Heading |
|---|---|---|---|---|---|
| 2026-04-21 17:23 | 58.95438 | -2.90183 | 58 ft | 0 kts | 251° |
| 2026-04-21 17:27 | 58.95441 | -2.90201 | 58 ft | 4 kts | 316° |
| 2026-04-21 17:27 | 58.95475 | -2.90266 | 57 ft | 8 kts | 313° |
| 2026-04-21 17:27 | 58.95527 | -2.90383 | 56 ft | 12 kts | 310° |
| 2026-04-21 17:28 | 58.95558 | -2.90532 | 54 ft | 12 kts | 275° |
| 2026-04-21 17:28 | 58.95573 | -2.90748 | 53 ft | 14 kts | 274° |
| 2026-04-21 17:28 | 58.95558 | -2.90919 | 51 ft | 12 kts | 243° |
| 2026-04-21 17:28 | 58.95531 | -2.91088 | 50 ft | 9 kts | 285° |
| 2026-04-21 17:29 | 58.95592 | -2.91175 | 49 ft | 11 kts | 338° |
| 2026-04-21 17:29 | 58.95659 | -2.91229 | 47 ft | 6 kts | 340° |
| 2026-04-21 17:29 | 58.95679 | -2.91244 | 47 ft | 3 kts | 336° |
| 2026-04-21 17:29 | 58.95708 | -2.91268 | 47 ft | 4 kts | 338° |
| 2026-04-21 17:30 | 58.95743 | -2.91293 | 46 ft | 4 kts | 353° |
| 2026-04-21 17:30 | 58.95772 | -2.91273 | 46 ft | 3 kts | 88° |
| 2026-04-21 17:30 | 58.95772 | -2.91266 | 46 ft | 0 kts | 89° |
| 2026-04-21 17:31 | 58.95795 | -2.90318 | 53 ft | 109 kts | 86° |
| 2026-04-21 17:31 | 58.95832 | -2.88413 | 564 ft | 131 kts | 86° |
| 2026-04-21 17:31 | 58.95817 | -2.86258 | 1349 ft | 138 kts | 89° |
| 2026-04-21 17:32 | 58.95773 | -2.84839 | 1870 ft | 140 kts | 89° |
| 2026-04-21 17:32 | 58.95674 | -2.81984 | 2730 ft | 154 kts | 90° |
| 2026-04-21 17:32 | 58.95601 | -2.79678 | 3295 ft | 167 kts | 90° |
| 2026-04-21 17:32 | 58.95896 | -2.77380 | 3840 ft | 173 kts | 52° |
| 2026-04-21 17:33 | 58.97018 | -2.76155 | 4403 ft | 183 kts | 8° |
| 2026-04-21 17:33 | 58.98361 | -2.76827 | 4973 ft | 195 kts | 333° |
| 2026-04-21 17:33 | 58.99666 | -2.78634 | 5584 ft | 203 kts | 325° |
| 2026-04-21 17:33 | 59.00948 | -2.80495 | 6165 ft | 208 kts | 327° |
| 2026-04-21 17:34 | 59.02267 | -2.82253 | 6740 ft | 211 kts | 329° |
| 2026-04-21 17:34 | 59.03659 | -2.83981 | 7332 ft | 213 kts | 331° |
| 2026-04-21 17:34 | 59.05043 | -2.85616 | 7898 ft | 214 kts | 331° |
| 2026-04-21 17:34 | 59.06401 | -2.87210 | 8453 ft | 216 kts | 331° |
| 2026-04-21 17:35 | 59.07723 | -2.88758 | 8969 ft | 217 kts | 331° |
| 2026-04-21 17:35 | 59.09114 | -2.90387 | 9487 ft | 218 kts | 331° |
| 2026-04-21 17:35 | 59.10527 | -2.92040 | 9978 ft | 219 kts | 330° |
| 2026-04-21 17:35 | 59.11980 | -2.93741 | 10480 ft | 221 kts | 330° |
| 2026-04-21 17:36 | 59.13395 | -2.95398 | 10925 ft | 223 kts | 330° |
| 2026-04-21 17:36 | 59.14841 | -2.97094 | 11374 ft | 225 kts | 330° |
| 2026-04-21 17:36 | 59.15813 | -2.98234 | 11672 ft | 225 kts | 330° |
| 2026-04-21 17:36 | 59.17691 | -3.00440 | 12221 ft | 226 kts | 330° |
| 2026-04-21 17:37 | 59.19113 | -3.02111 | 12604 ft | 227 kts | 330° |
| 2026-04-21 17:37 | 59.20554 | -3.03807 | 12983 ft | 228 kts | 330° |
| 2026-04-21 17:37 | 59.21492 | -3.04912 | 13216 ft | 229 kts | 330° |
| 2026-04-21 17:37 | 59.23431 | -3.07198 | 13698 ft | 230 kts | 330° |
| 2026-04-21 17:38 | 59.24853 | -3.08877 | 14044 ft | 230 kts | 330° |
| 2026-04-21 17:38 | 59.26259 | -3.10537 | 14369 ft | 231 kts | 330° |
| 2026-04-21 17:38 | 59.27686 | -3.12225 | 14688 ft | 231 kts | 330° |
| 2026-04-21 17:38 | 59.29185 | -3.13999 | 14996 ft | 233 kts | 330° |
| 2026-04-21 17:39 | 59.30607 | -3.15684 | 15267 ft | 234 kts | 330° |
| 2026-04-21 17:39 | 59.31553 | -3.16806 | 15442 ft | 235 kts | 330° |
| 2026-04-21 17:39 | 59.33473 | -3.19085 | 15790 ft | 237 kts | 330° |
| 2026-04-21 17:39 | 59.34958 | -3.20850 | 16067 ft | 238 kts | 330° |
| 2026-04-21 17:40 | 59.36445 | -3.22620 | 16336 ft | 239 kts | 330° |
| 2026-04-21 17:40 | 59.37925 | -3.24383 | 16589 ft | 239 kts | 330° |
| 2026-04-21 17:40 | 59.39393 | -3.26134 | 16864 ft | 237 kts | 330° |
| 2026-04-21 17:40 | 59.40829 | -3.27849 | 17159 ft | 234 kts | 330° |
| 2026-04-21 17:41 | 59.42218 | -3.29511 | 17576 ft | 226 kts | 330° |
| 2026-04-21 17:41 | 59.43584 | -3.31148 | 17988 ft | 218 kts | 330° |
| 2026-04-21 17:41 | 59.44868 | -3.32689 | 18435 ft | 208 kts | 331° |
| 2026-04-21 17:41 | 59.46102 | -3.34171 | 18877 ft | 198 kts | 331° |
| 2026-04-21 17:42 | 59.47274 | -3.35577 | 19324 ft | 190 kts | 332° |
| 2026-04-21 17:42 | 59.48415 | -3.36949 | 19791 ft | 189 kts | 332° |
| 2026-04-21 17:42 | 59.49560 | -3.38327 | 20267 ft | 190 kts | 332° |
| 2026-04-21 17:42 | 59.50735 | -3.39739 | 20752 ft | 190 kts | 333° |
| 2026-04-21 17:43 | 59.51884 | -3.41121 | 21223 ft | 190 kts | 333° |
| 2026-04-21 17:43 | 59.53045 | -3.42519 | 21696 ft | 189 kts | 334° |
| 2026-04-21 17:43 | 59.54187 | -3.43896 | 22166 ft | 188 kts | 335° |
| 2026-04-21 17:43 | 59.55331 | -3.45277 | 22644 ft | 185 kts | 335° |
| 2026-04-21 17:44 | 59.56432 | -3.46607 | 23106 ft | 182 kts | 336° |
| 2026-04-21 17:44 | 59.57560 | -3.47972 | 23590 ft | 178 kts | 336° |
| 2026-04-21 17:44 | 59.58737 | -3.49400 | 24107 ft | 174 kts | 337° |
| 2026-04-21 17:44 | 59.59523 | -3.50353 | 24454 ft | 175 kts | 337° |
| 2026-04-21 17:45 | 59.61177 | -3.52331 | 24536 ft | 198 kts | 337° |
| 2026-04-21 17:45 | 59.62531 | -3.53958 | 24555 ft | 210 kts | 336° |
| 2026-04-21 17:45 | 59.63976 | -3.55703 | 24550 ft | 221 kts | 336° |
| 2026-04-21 17:45 | 59.65506 | -3.57558 | 24542 ft | 232 kts | 335° |
| 2026-04-21 17:46 | 59.67047 | -3.59433 | 24530 ft | 237 kts | 335° |
| 2026-04-21 17:46 | 59.68644 | -3.61381 | 24540 ft | 240 kts | 336° |
| 2026-04-21 17:46 | 59.70213 | -3.63298 | 24602 ft | 241 kts | 336° |
| 2026-04-21 17:46 | 59.71841 | -3.65285 | 24597 ft | 245 kts | 335° |
| 2026-04-21 17:47 | 59.73442 | -3.67239 | 24594 ft | 247 kts | 335° |
| 2026-04-21 17:47 | 59.75050 | -3.69205 | 24596 ft | 249 kts | 335° |
| 2026-04-21 17:47 | 59.76630 | -3.71139 | 24601 ft | 252 kts | 335° |
| 2026-04-21 17:47 | 59.78268 | -3.73147 | 24595 ft | 253 kts | 335° |
| 2026-04-21 17:48 | 59.79366 | -3.74495 | 24603 ft | 254 kts | 335° |
| 2026-04-21 17:48 | 59.81597 | -3.77235 | 24604 ft | 256 kts | 335° |
| 2026-04-21 17:48 | 59.83337 | -3.79375 | 24596 ft | 258 kts | 335° |
| 2026-04-21 17:48 | 59.84994 | -3.81417 | 24597 ft | 259 kts | 335° |
| 2026-04-21 17:49 | 59.86668 | -3.83481 | 24601 ft | 260 kts | 335° |
| 2026-04-21 17:49 | 59.88362 | -3.85572 | 24599 ft | 261 kts | 335° |
| 2026-04-21 17:49 | 59.90057 | -3.87669 | 24599 ft | 262 kts | 335° |
| 2026-04-21 17:49 | 59.91200 | -3.89083 | 24598 ft | 262 kts | 335° |
| 2026-04-21 17:50 | 59.93511 | -3.91946 | 24601 ft | 263 kts | 335° |
| 2026-04-21 17:50 | 59.95262 | -3.94119 | 24599 ft | 263 kts | 336° |
| 2026-04-21 17:50 | 59.97060 | -3.96353 | 24603 ft | 264 kts | 336° |
| 2026-04-21 17:50 | 59.98787 | -3.98501 | 24600 ft | 264 kts | 336° |
| 2026-04-21 17:51 | 60.00360 | -4.00459 | 24598 ft | 265 kts | 336° |
| 2026-04-21 17:51 | 60.01940 | -4.02448 | 24603 ft | 265 kts | 335° |
| 2026-04-21 17:51 | 60.03519 | -4.04444 | 24603 ft | 265 kts | 335° |
| 2026-04-21 17:51 | 60.05107 | -4.06454 | 24602 ft | 265 kts | 335° |
| 2026-04-21 17:52 | 60.06676 | -4.08442 | 24602 ft | 266 kts | 335° |
| 2026-04-21 17:52 | 60.08247 | -4.10433 | 24602 ft | 266 kts | 335° |
| 2026-04-21 17:52 | 60.09915 | -4.12550 | 24602 ft | 266 kts | 335° |
| 2026-04-21 17:52 | 60.11573 | -4.14656 | 24610 ft | 267 kts | 335° |
| 2026-04-21 17:53 | 60.13358 | -4.16927 | 24611 ft | 267 kts | 335° |
| 2026-04-21 17:53 | 60.14968 | -4.18975 | 24610 ft | 266 kts | 336° |
| 2026-04-21 17:53 | 60.16612 | -4.21071 | 24610 ft | 266 kts | 336° |
| 2026-04-21 17:53 | 60.18226 | -4.23130 | 24611 ft | 266 kts | 336° |
| 2026-04-21 17:54 | 60.19814 | -4.25159 | 24611 ft | 265 kts | 336° |
| 2026-04-21 17:54 | 60.21395 | -4.27182 | 24611 ft | 264 kts | 336° |
| 2026-04-21 17:54 | 60.22993 | -4.29228 | 24611 ft | 263 kts | 336° |
| 2026-04-21 17:54 | 60.24588 | -4.31272 | 24612 ft | 262 kts | 336° |
| 2026-04-21 17:55 | 60.26163 | -4.33292 | 24613 ft | 261 kts | 336° |
| 2026-04-21 17:55 | 60.27741 | -4.35320 | 24616 ft | 261 kts | 336° |
| 2026-04-21 17:55 | 60.29307 | -4.37335 | 24617 ft | 260 kts | 336° |
| 2026-04-21 17:55 | 60.30868 | -4.39346 | 24618 ft | 260 kts | 336° |
| 2026-04-21 17:56 | 60.32420 | -4.41347 | 24620 ft | 259 kts | 336° |
| 2026-04-21 17:56 | 60.33962 | -4.43338 | 24620 ft | 259 kts | 336° |
| 2026-04-21 17:56 | 60.35506 | -4.45333 | 24623 ft | 258 kts | 336° |
| 2026-04-21 17:56 | 60.37050 | -4.47330 | 24623 ft | 258 kts | 336° |
| 2026-04-21 17:57 | 60.38608 | -4.49349 | 24624 ft | 258 kts | 336° |
| 2026-04-21 17:57 | 60.40153 | -4.51352 | 24623 ft | 258 kts | 336° |
| 2026-04-21 17:57 | 60.41712 | -4.53378 | 24623 ft | 257 kts | 336° |
| 2026-04-21 17:57 | 60.43261 | -4.55391 | 24624 ft | 257 kts | 336° |
| 2026-04-21 17:58 | 60.44797 | -4.57390 | 24624 ft | 257 kts | 336° |
| 2026-04-21 17:58 | 60.46327 | -4.59383 | 24625 ft | 257 kts | 336° |
| 2026-04-21 17:58 | 60.47842 | -4.61360 | 24626 ft | 257 kts | 336° |
| 2026-04-21 17:58 | 60.49394 | -4.63385 | 24627 ft | 256 kts | 336° |
| 2026-04-21 17:59 | 60.50917 | -4.65378 | 24627 ft | 256 kts | 336° |
| 2026-04-21 17:59 | 60.52480 | -4.67423 | 24626 ft | 256 kts | 335° |
| 2026-04-21 17:59 | 60.54009 | -4.69427 | 24625 ft | 256 kts | 335° |
| 2026-04-21 17:59 | 60.55523 | -4.71413 | 24625 ft | 256 kts | 335° |
| 2026-04-21 18:00 | 60.57040 | -4.73406 | 24625 ft | 256 kts | 336° |
| 2026-04-21 18:00 | 60.58584 | -4.75435 | 24625 ft | 255 kts | 336° |
| 2026-04-21 18:00 | 60.60086 | -4.77414 | 24622 ft | 255 kts | 336° |
| 2026-04-21 18:00 | 60.61589 | -4.79394 | 24621 ft | 255 kts | 336° |
| 2026-04-21 18:01 | 60.63112 | -4.81404 | 24618 ft | 255 kts | 336° |
| 2026-04-21 18:01 | 60.64623 | -4.83399 | 24617 ft | 255 kts | 336° |
| 2026-04-21 18:01 | 60.66122 | -4.85382 | 24618 ft | 255 kts | 335° |
| 2026-04-21 18:01 | 60.67611 | -4.87354 | 24620 ft | 255 kts | 336° |
| 2026-04-21 18:02 | 60.68647 | -4.88727 | 24620 ft | 255 kts | 336° |
| 2026-04-21 18:02 | 60.70674 | -4.91416 | 24619 ft | 255 kts | 335° |
| 2026-04-21 18:02 | 60.72245 | -4.93503 | 24619 ft | 255 kts | 336° |
| 2026-04-21 18:02 | 60.73789 | -4.95557 | 24623 ft | 255 kts | 336° |
| 2026-04-21 18:03 | 60.75452 | -4.97770 | 24624 ft | 255 kts | 336° |
| 2026-04-21 18:03 | 60.77146 | -5.00029 | 24625 ft | 255 kts | 335° |
| 2026-04-21 18:03 | 60.78804 | -5.02243 | 24626 ft | 254 kts | 336° |
| 2026-04-21 18:03 | 60.80503 | -5.04514 | 24627 ft | 254 kts | 336° |
| 2026-04-21 18:04 | 60.82180 | -5.06758 | 24627 ft | 255 kts | 336° |
| 2026-04-21 18:04 | 60.83725 | -5.08830 | 24625 ft | 255 kts | 336° |
| 2026-04-21 18:04 | 60.85371 | -5.11038 | 24626 ft | 255 kts | 336° |
| 2026-04-21 18:04 | 60.86962 | -5.13175 | 24627 ft | 255 kts | 336° |
| 2026-04-21 18:05 | 60.88463 | -5.15194 | 24627 ft | 255 kts | 336° |
| 2026-04-21 18:05 | 60.89970 | -5.17223 | 24627 ft | 255 kts | 336° |
| 2026-04-21 18:05 | 60.91459 | -5.19230 | 24628 ft | 255 kts | 336° |
| 2026-04-21 18:05 | 60.92941 | -5.21231 | 24627 ft | 255 kts | 336° |
| 2026-04-21 18:06 | 60.94456 | -5.23278 | 24627 ft | 255 kts | 336° |
| 2026-04-21 18:06 | 60.96084 | -5.25480 | 24627 ft | 255 kts | 336° |
| 2026-04-21 18:06 | 60.97720 | -5.27696 | 24628 ft | 255 kts | 336° |
| 2026-04-21 18:06 | 60.99284 | -5.29817 | 24629 ft | 255 kts | 336° |
| 2026-04-21 18:07 | 61.00808 | -5.31887 | 24628 ft | 255 kts | 336° |
| 2026-04-21 18:07 | 61.02303 | -5.33919 | 24627 ft | 255 kts | 336° |
| 2026-04-21 18:07 | 61.03880 | -5.36064 | 24625 ft | 255 kts | 336° |
| 2026-04-21 18:07 | 61.05431 | -5.38178 | 24623 ft | 255 kts | 336° |
| 2026-04-21 18:08 | 61.06971 | -5.40278 | 24621 ft | 255 kts | 336° |
| 2026-04-21 18:08 | 61.08553 | -5.42439 | 24623 ft | 255 kts | 336° |
| 2026-04-21 18:08 | 61.10276 | -5.44796 | 24625 ft | 255 kts | 336° |
| 2026-04-21 18:08 | 61.11966 | -5.47110 | 24629 ft | 256 kts | 336° |
| 2026-04-21 18:09 | 61.13571 | -5.49310 | 24627 ft | 256 kts | 335° |
| 2026-04-21 18:09 | 61.15224 | -5.51579 | 24627 ft | 257 kts | 336° |
| 2026-04-21 18:09 | 61.16352 | -5.53129 | 24625 ft | 256 kts | 335° |
| 2026-04-21 18:09 | 61.18538 | -5.56143 | 24479 ft | 250 kts | 336° |
| 2026-04-21 18:10 | 61.20157 | -5.58373 | 24165 ft | 250 kts | 336° |
| 2026-04-21 18:10 | 61.21773 | -5.60597 | 23754 ft | 250 kts | 336° |
| 2026-04-21 18:10 | 61.23418 | -5.62864 | 23281 ft | 251 kts | 335° |
| 2026-04-21 18:10 | 61.25048 | -5.65115 | 22847 ft | 251 kts | 334° |
| 2026-04-21 18:11 | 61.26534 | -5.67172 | 22463 ft | 250 kts | 334° |
| 2026-04-21 18:11 | 61.27979 | -5.69177 | 22117 ft | 248 kts | 334° |
| 2026-04-21 18:11 | 61.29416 | -5.71174 | 21777 ft | 246 kts | 334° |
| 2026-04-21 18:11 | 61.30831 | -5.73140 | 21429 ft | 245 kts | 334° |
| 2026-04-21 18:12 | 61.32250 | -5.75115 | 21078 ft | 244 kts | 334° |
| 2026-04-21 18:12 | 61.33644 | -5.77058 | 20728 ft | 242 kts | 334° |
| 2026-04-21 18:12 | 61.35050 | -5.79018 | 20373 ft | 242 kts | 334° |
| 2026-04-21 18:12 | 61.35980 | -5.80316 | 20147 ft | 241 kts | 334° |
| 2026-04-21 18:13 | 61.37825 | -5.82895 | 19703 ft | 239 kts | 334° |
| 2026-04-21 18:13 | 61.39209 | -5.84832 | 19371 ft | 238 kts | 333° |
| 2026-04-21 18:13 | 61.40574 | -5.86742 | 19054 ft | 236 kts | 334° |
| 2026-04-21 18:13 | 61.41961 | -5.88688 | 18722 ft | 236 kts | 333° |
| 2026-04-21 18:14 | 61.44735 | -5.92582 | 18081 ft | 234 kts | 333° |
| 2026-04-21 18:14 | 61.46096 | -5.94497 | 17773 ft | 233 kts | 333° |
| 2026-04-21 18:14 | 61.47456 | -5.96411 | 17472 ft | 232 kts | 333° |
| 2026-04-21 18:15 | 61.48823 | -5.98339 | 17183 ft | 230 kts | 333° |
| 2026-04-21 18:15 | 61.50167 | -6.00235 | 16891 ft | 229 kts | 333° |
| 2026-04-21 18:15 | 61.51471 | -6.02132 | 16606 ft | 229 kts | 332° |
| 2026-04-21 18:15 | 61.52775 | -6.04061 | 16330 ft | 227 kts | 332° |
| 2026-04-21 18:16 | 61.54066 | -6.05971 | 16061 ft | 226 kts | 332° |
| 2026-04-21 18:16 | 61.55365 | -6.07893 | 15792 ft | 224 kts | 331° |
| 2026-04-21 18:16 | 61.56665 | -6.09816 | 15510 ft | 223 kts | 332° |
| 2026-04-21 18:16 | 61.57946 | -6.11710 | 15220 ft | 222 kts | 331° |
| 2026-04-21 18:17 | 61.59192 | -6.13553 | 14930 ft | 222 kts | 331° |
| 2026-04-21 18:17 | 61.60459 | -6.15431 | 14644 ft | 221 kts | 331° |
| 2026-04-21 18:17 | 61.61711 | -6.17288 | 14364 ft | 220 kts | 331° |
| 2026-04-21 18:17 | 61.62943 | -6.19117 | 14093 ft | 218 kts | 331° |
| 2026-04-21 18:18 | 61.64182 | -6.20957 | 13829 ft | 217 kts | 331° |
| 2026-04-21 18:18 | 61.65411 | -6.22785 | 13573 ft | 216 kts | 331° |
| 2026-04-21 18:18 | 61.66635 | -6.24608 | 13308 ft | 215 kts | 331° |
| 2026-04-21 18:18 | 61.67840 | -6.26404 | 13050 ft | 214 kts | 330° |
| 2026-04-21 18:19 | 61.69083 | -6.28258 | 12775 ft | 213 kts | 330° |
| 2026-04-21 18:19 | 61.69913 | -6.29497 | 12584 ft | 212 kts | 330° |
| 2026-04-21 18:19 | 61.71558 | -6.31952 | 12158 ft | 210 kts | 330° |
| 2026-04-21 18:19 | 61.72761 | -6.33749 | 11815 ft | 210 kts | 330° |
| 2026-04-21 18:20 | 61.73986 | -6.35582 | 11472 ft | 209 kts | 330° |
| 2026-04-21 18:20 | 61.75219 | -6.37428 | 11144 ft | 208 kts | 330° |
| 2026-04-21 18:20 | 61.76413 | -6.39218 | 10822 ft | 207 kts | 329° |
| 2026-04-21 18:20 | 61.77612 | -6.41022 | 10506 ft | 206 kts | 329° |
| 2026-04-21 18:21 | 61.78819 | -6.42838 | 10189 ft | 205 kts | 329° |
| 2026-04-21 18:21 | 61.80020 | -6.44645 | 9873 ft | 204 kts | 329° |
| 2026-04-21 18:21 | 61.81188 | -6.46406 | 9571 ft | 203 kts | 329° |
| 2026-04-21 18:21 | 61.82375 | -6.48195 | 9259 ft | 202 kts | 329° |
| 2026-04-21 18:22 | 61.83535 | -6.49947 | 8958 ft | 201 kts | 329° |
| 2026-04-21 18:22 | 61.84708 | -6.51719 | 8645 ft | 200 kts | 328° |
| 2026-04-21 18:22 | 61.85868 | -6.53472 | 8349 ft | 199 kts | 328° |
| 2026-04-21 18:22 | 61.87056 | -6.55270 | 8048 ft | 199 kts | 328° |
| 2026-04-21 18:23 | 61.88173 | -6.57008 | 7757 ft | 199 kts | 323° |
| 2026-04-21 18:23 | 61.89080 | -6.59401 | 7453 ft | 202 kts | 305° |
| 2026-04-21 18:23 | 61.89814 | -6.62171 | 7161 ft | 201 kts | 302° |
| 2026-04-21 18:23 | 61.90516 | -6.64960 | 6870 ft | 200 kts | 302° |
| 2026-04-21 18:24 | 61.91188 | -6.67682 | 6579 ft | 200 kts | 301° |
| 2026-04-21 18:24 | 61.91909 | -6.70522 | 6289 ft | 199 kts | 301° |
| 2026-04-21 18:24 | 61.92650 | -6.73426 | 5998 ft | 199 kts | 301° |
| 2026-04-21 18:24 | 61.93380 | -6.76285 | 5727 ft | 197 kts | 301° |
| 2026-04-21 18:25 | 61.94077 | -6.79017 | 5460 ft | 196 kts | 301° |
| 2026-04-21 18:25 | 61.94773 | -6.81748 | 5195 ft | 194 kts | 301° |
| 2026-04-21 18:25 | 61.95462 | -6.84457 | 4932 ft | 193 kts | 301° |
| 2026-04-21 18:25 | 61.96149 | -6.87157 | 4682 ft | 191 kts | 301° |
| 2026-04-21 18:26 | 61.96793 | -6.89692 | 4619 ft | 179 kts | 301° |
| 2026-04-21 18:26 | 61.97432 | -6.92209 | 4425 ft | 180 kts | 301° |
| 2026-04-21 18:26 | 61.98055 | -6.94664 | 4143 ft | 174 kts | 301° |
| 2026-04-21 18:26 | 61.98642 | -6.96983 | 3870 ft | 170 kts | 300° |
| 2026-04-21 18:27 | 61.99214 | -6.99241 | 3595 ft | 166 kts | 300° |
| 2026-04-21 18:27 | 61.99783 | -7.01493 | 3319 ft | 162 kts | 300° |
| 2026-04-21 18:27 | 62.00348 | -7.03730 | 3044 ft | 159 kts | 300° |
| 2026-04-21 18:27 | 62.00887 | -7.05871 | 2758 ft | 141 kts | 300° |
| 2026-04-21 18:28 | 62.01341 | -7.07677 | 2531 ft | 120 kts | 300° |
| 2026-04-21 18:28 | 62.01731 | -7.09226 | 2336 ft | 118 kts | 300° |
| 2026-04-21 18:28 | 62.02117 | -7.10765 | 2150 ft | 118 kts | 300° |
| 2026-04-21 18:28 | 62.02508 | -7.12320 | 1961 ft | 117 kts | 300° |
| 2026-04-21 18:29 | 62.02907 | -7.13907 | 1768 ft | 116 kts | 300° |
| 2026-04-21 18:29 | 62.03340 | -7.15634 | 1556 ft | 118 kts | 300° |
| 2026-04-21 18:29 | 62.03791 | -7.17446 | 1374 ft | 119 kts | 300° |
| 2026-04-21 18:29 | 62.04246 | -7.19241 | 1183 ft | 120 kts | 301° |
| 2026-04-21 18:30 | 62.04713 | -7.21072 | 930 ft | 120 kts | 300° |
| 2026-04-21 18:30 | 62.05175 | -7.22903 | 640 ft | 117 kts | 301° |
| 2026-04-21 18:30 | 62.05466 | -7.24084 | 507 ft | 117 kts | 300° |
| 2026-04-21 18:30 | 62.06038 | -7.26413 | 257 ft | 102 kts | 297° |
| 2026-04-21 18:31 | 62.06304 | -7.27495 | 284 ft | 41 kts | 297° |
| 2026-04-21 18:31 | 62.06424 | -7.27982 | 288 ft | 22 kts | 297° |
| 2026-04-21 18:31 | 62.06466 | -7.28141 | 286 ft | 8 kts | 316° |
| 2026-04-21 18:31 | 62.06530 | -7.28117 | 284 ft | 12 kts | 22° |
| 2026-04-21 18:32 | 62.06594 | -7.28087 | 283 ft | 2 kts | 355° |
| 2026-04-21 18:32 | 62.06603 | -7.28089 | 283 ft | 3 kts | 355° |
| 2026-04-21 18:32 | 62.06654 | -7.28102 | 283 ft | 6 kts | 343° |
| 2026-04-21 18:32 | 62.06697 | -7.28155 | 283 ft | 7 kts | 311° |
| 2026-04-21 18:33 | 62.06724 | -7.28237 | 283 ft | 0 kts | 306° |
| 2026-04-21 18:33 | 62.06733 | -7.28245 | 283 ft | 3 kts | 8° |
| 2026-04-21 18:33 | 62.06754 | -7.28208 | 283 ft | 0 kts | 72° |